Time;durP1;ratioP1;P1;durP2;ratioP2;P2;SDS_P1;SDS_P2;PMS_P1;PMS_P2;Temp;Humidity;BMP_temperature;BMP_pressure;BME280_temperature;BME280_humidity;BME280_pressure;Samples;Min_cycle;Max_cycle;Signal;HPM_P1;HPM_P2
2020/12/14 00:00:14;;;;;;;11.97;6.10;;;7.00;99.90;;;;;;5002636;28;20214;-78
2020/12/14 00:02:41;;;;;;;15.10;6.03;;;7.00;99.90;;;;;;5002726;28;20219;-75
2020/12/14 00:05:08;;;;;;;11.97;6.53;;;7.00;99.90;;;;;;5003077;28;20214;-76
2020/12/14 00:07:34;;;;;;;14.27;5.30;;;7.00;99.90;;;;;;5003116;28;20203;-76
2020/12/14 00:10:02;;;;;;;9.10;5.90;;;7.00;99.90;;;;;;5002464;28;20231;-77
2020/12/14 00:12:29;;;;;;;12.00;5.30;;;7.00;99.90;;;;;;5002441;28;20619;-77
2020/12/14 00:14:55;;;;;;;10.50;5.03;;;7.00;99.90;;;;;;5001353;28;20591;-77
2020/12/14 00:17:21;;;;;;;10.80;5.53;;;7.10;99.90;;;;;;5002612;28;20280;-80
2020/12/14 00:19:48;;;;;;;13.17;5.50;;;7.00;99.90;;;;;;5003740;28;20836;-77
2020/12/14 00:22:14;;;;;;;13.50;5.87;;;7.10;99.90;;;;;;5002950;28;20203;-77
2020/12/14 00:24:41;;;;;;;17.60;5.67;;;7.10;99.90;;;;;;5003224;28;20203;-78
2020/12/14 00:27:08;;;;;;;13.97;5.47;;;7.00;99.90;;;;;;5003160;28;20545;-78
2020/12/14 00:29:35;;;;;;;9.37;5.57;;;7.10;99.90;;;;;;5005840;28;20219;-78
2020/12/14 00:32:01;;;;;;;11.10;5.17;;;7.10;99.90;;;;;;5007170;28;20207;-78
2020/12/14 00:34:28;;;;;;;11.57;5.33;;;7.10;99.90;;;;;;5006898;28;20215;-77
2020/12/14 00:36:54;;;;;;;13.70;5.57;;;7.10;99.90;;;;;;5006298;28;20195;-78
2020/12/14 00:39:20;;;;;;;12.23;6.43;;;7.10;99.90;;;;;;5006434;28;20215;-79
2020/12/14 00:41:46;;;;;;;10.83;5.63;;;7.10;99.90;;;;;;5006634;28;20199;-78
2020/12/14 00:44:14;;;;;;;8.77;5.30;;;7.10;99.90;;;;;;5005483;28;20215;-76
2020/12/14 00:46:40;;;;;;;13.00;6.27;;;7.10;99.90;;;;;;5006740;28;20619;-79
2020/12/14 00:49:06;;;;;;;13.97;6.07;;;7.20;99.90;;;;;;5005832;28;20227;-77
2020/12/14 00:51:32;;;;;;;13.20;6.50;;;7.20;99.90;;;;;;5006514;28;20207;-78
2020/12/14 00:53:59;;;;;;;14.43;6.53;;;7.20;99.90;;;;;;5006402;28;20203;-78
2020/12/14 00:56:25;;;;;;;13.63;5.90;;;7.20;99.90;;;;;;5006165;28;20689;-79
2020/12/14 00:58:52;;;;;;;11.40;5.43;;;7.20;99.90;;;;;;5005472;28;20215;-79
2020/12/14 01:01:19;;;;;;;10.90;5.50;;;7.30;99.90;;;;;;5005511;28;20619;-78
2020/12/14 01:03:46;;;;;;;11.80;5.27;;;7.30;99.90;;;;;;5006168;28;20213;-78
2020/12/14 01:06:12;;;;;;;11.93;5.63;;;7.30;99.90;;;;;;5005076;28;20215;-79
2020/12/14 01:08:40;;;;;;;12.30;6.00;;;7.30;99.90;;;;;;5006047;28;20251;-79
2020/12/14 01:11:07;;;;;;;11.80;5.80;;;7.30;99.90;;;;;;5005223;28;20203;-78
2020/12/14 01:13:33;;;;;;;9.10;5.77;;;7.30;99.90;;;;;;5005503;28;20234;-79
2020/12/14 01:15:59;;;;;;;8.73;5.00;;;7.30;99.90;;;;;;5005517;28;20287;-79
2020/12/14 01:18:26;;;;;;;11.53;5.30;;;7.30;99.90;;;;;;5004823;28;20665;-77
2020/12/14 01:20:52;;;;;;;6.40;4.50;;;7.30;99.90;;;;;;5005899;28;20207;-78
2020/12/14 01:23:19;;;;;;;8.43;4.20;;;7.30;99.90;;;;;;5005660;28;20206;-78
2020/12/14 01:25:45;;;;;;;11.47;4.63;;;7.30;99.90;;;;;;5004778;28;20207;-78
2020/12/14 01:28:12;;;;;;;9.53;4.47;;;7.40;99.90;;;;;;5005411;28;20210;-78
2020/12/14 01:30:38;;;;;;;8.10;4.60;;;7.40;99.90;;;;;;5005462;28;20214;-79
2020/12/14 01:33:04;;;;;;;8.83;4.97;;;7.30;99.90;;;;;;5004672;28;20207;-78
2020/12/14 01:35:31;;;;;;;8.30;4.20;;;7.40;99.90;;;;;;5005494;28;20211;-79
2020/12/14 01:37:58;;;;;;;10.17;4.57;;;7.40;99.90;;;;;;5005675;28;20203;-78
2020/12/14 01:40:24;;;;;;;11.10;4.47;;;7.40;99.90;;;;;;5004224;28;20345;-79
2020/12/14 01:42:50;;;;;;;14.23;4.40;;;7.40;99.90;;;;;;5004831;28;20199;-79
2020/12/14 01:45:17;;;;;;;9.77;4.40;;;7.40;99.90;;;;;;5004838;28;20208;-78
2020/12/14 01:47:45;;;;;;;7.33;4.07;;;7.40;99.90;;;;;;5004219;28;20293;-78
2020/12/14 01:50:13;;;;;;;7.80;4.87;;;7.40;99.90;;;;;;5004591;28;20610;-78
2020/12/14 01:52:41;;;;;;;8.93;3.93;;;7.40;99.90;;;;;;5004857;28;20223;-78
2020/12/14 01:55:09;;;;;;;7.97;4.00;;;7.40;99.90;;;;;;5004698;28;20214;-77
2020/12/14 01:57:37;;;;;;;10.27;4.70;;;7.40;99.90;;;;;;5005369;28;20207;-78
2020/12/14 02:00:06;;;;;;;7.80;4.07;;;7.40;99.90;;;;;;5004630;28;20891;-78
2020/12/14 02:02:32;;;;;;;7.07;3.70;;;7.40;99.90;;;;;;5004533;28;20466;-77
2020/12/14 02:04:59;;;;;;;10.10;4.73;;;7.40;99.90;;;;;;5004623;28;20285;-78
2020/12/14 02:07:25;;;;;;;10.60;4.37;;;7.40;99.90;;;;;;5004249;28;20191;-78
2020/12/14 02:09:53;;;;;;;12.50;5.10;;;7.50;99.90;;;;;;5004181;28;20227;-77
2020/12/14 02:12:22;;;;;;;12.20;5.07;;;7.50;99.90;;;;;;5004285;28;20342;-77
2020/12/14 02:14:52;;;;;;;6.33;4.30;;;7.40;99.90;;;;;;5004341;28;20297;-78
2020/12/14 02:17:19;;;;;;;5.97;4.23;;;7.50;99.90;;;;;;5003875;28;20203;-77
2020/12/14 02:19:47;;;;;;;10.33;4.77;;;7.50;99.90;;;;;;5004494;28;20211;-76
2020/12/14 02:22:15;;;;;;;6.60;4.67;;;7.50;99.90;;;;;;4985291;28;20655;-78
2020/12/14 02:24:46;;;;;;;9.37;5.27;;;7.50;99.90;;;;;;4985183;28;20204;-77
2020/12/14 02:27:14;;;;;;;12.60;5.87;;;7.50;99.90;;;;;;4985551;28;20291;-77
2020/12/14 02:29:42;;;;;;;10.40;5.83;;;7.50;99.90;;;;;;4984524;28;20334;-77
2020/12/14 02:32:11;;;;;;;10.07;5.70;;;7.50;99.90;;;;;;4984242;28;20218;-77
2020/12/14 02:34:39;;;;;;;9.47;5.10;;;7.50;99.90;;;;;;4984854;28;20212;-77
2020/12/14 02:37:07;;;;;;;7.37;5.57;;;7.50;99.90;;;;;;4984124;28;20323;-76
2020/12/14 02:39:37;;;;;;;10.57;5.57;;;7.60;99.90;;;;;;4984706;28;20926;-78
2020/12/14 02:42:06;;;;;;;8.40;5.67;;;7.60;99.90;;;;;;4984208;28;20639;-77
2020/12/14 02:44:32;;;;;;;9.53;6.17;;;7.60;99.90;;;;;;4984318;28;20267;-78
2020/12/14 02:46:59;;;;;;;9.47;6.07;;;7.60;99.90;;;;;;4984709;28;20204;-78
2020/12/14 02:49:25;;;;;;;10.20;5.90;;;7.60;99.90;;;;;;4984385;28;20662;-77
2020/12/14 02:51:51;;;;;;;7.90;5.97;;;7.60;99.90;;;;;;4983749;28;20204;-78
2020/12/14 02:54:17;;;;;;;9.90;6.27;;;7.70;99.90;;;;;;4984192;28;20207;-77
2020/12/14 02:56:43;;;;;;;8.87;5.77;;;7.70;99.90;;;;;;4984294;28;20208;-77
2020/12/14 02:59:11;;;;;;;8.13;6.20;;;7.70;99.90;;;;;;4984418;28;20200;-78
2020/12/14 03:01:37;;;;;;;6.00;5.40;;;7.70;99.90;;;;;;4984575;28;20215;-77
2020/12/14 03:04:03;;;;;;;10.03;6.23;;;7.70;99.90;;;;;;4983829;28;20200;-77
2020/12/14 03:06:30;;;;;;;6.97;5.80;;;7.70;99.90;;;;;;4984335;28;20207;-77
2020/12/14 03:08:56;;;;;;;7.20;6.17;;;7.70;99.90;;;;;;4984671;28;20262;-77
2020/12/14 03:11:23;;;;;;;7.60;5.67;;;7.70;99.90;;;;;;4983334;28;20207;-77
2020/12/14 03:13:49;;;;;;;8.40;6.10;;;7.70;99.90;;;;;;4984105;28;20223;-77
2020/12/14 03:16:17;;;;;;;13.33;6.67;;;7.70;99.90;;;;;;4983618;28;20618;-78
2020/12/14 03:18:43;;;;;;;9.00;5.87;;;7.70;99.90;;;;;;4983766;28;20235;-78
2020/12/14 03:21:09;;;;;;;9.43;6.87;;;7.70;99.90;;;;;;4993663;28;20214;-78
2020/12/14 03:23:36;;;;;;;7.03;6.33;;;7.70;99.90;;;;;;5003746;28;20211;-77
2020/12/14 03:26:02;;;;;;;7.23;6.03;;;7.70;99.90;;;;;;5003334;28;20217;-79
2020/12/14 03:28:28;;;;;;;15.17;6.60;;;7.70;99.90;;;;;;5003850;28;20213;-77
2020/12/14 03:30:55;;;;;;;7.83;6.90;;;7.70;99.90;;;;;;5003799;28;20199;-77
2020/12/14 03:33:22;;;;;;;8.37;6.83;;;7.80;99.90;;;;;;5003036;28;20203;-79
2020/12/14 03:35:48;;;;;;;8.77;7.10;;;7.80;99.90;;;;;;5004114;28;20203;-76
2020/12/14 03:38:15;;;;;;;11.80;7.80;;;7.80;99.90;;;;;;5003523;28;20293;-78
2020/12/14 03:40:41;;;;;;;9.07;7.00;;;7.80;99.90;;;;;;5002787;28;20208;-78
2020/12/14 03:43:08;;;;;;;14.30;8.20;;;7.80;99.90;;;;;;5003425;28;20214;-78
2020/12/14 03:45:34;;;;;;;10.73;7.67;;;7.80;99.90;;;;;;5003280;28;20239;-78
2020/12/14 03:48:00;;;;;;;8.87;7.57;;;7.80;99.90;;;;;;5002807;28;20207;-76
2020/12/14 03:50:27;;;;;;;10.30;7.80;;;7.80;99.90;;;;;;5003107;28;20254;-78
2020/12/14 03:52:54;;;;;;;12.70;7.87;;;7.80;99.90;;;;;;5003634;28;20202;-77
2020/12/14 03:55:20;;;;;;;9.23;7.90;;;7.90;99.90;;;;;;5002914;28;20208;-78
2020/12/14 03:57:46;;;;;;;13.27;8.20;;;7.90;99.90;;;;;;5003183;28;20210;-77
2020/12/14 04:00:13;;;;;;;9.20;7.77;;;7.90;99.90;;;;;;5002463;28;20231;-77
2020/12/14 04:02:39;;;;;;;9.80;8.73;;;7.90;99.90;;;;;;5003486;28;20358;-76
2020/12/14 04:05:07;;;;;;;9.50;8.47;;;7.90;99.90;;;;;;5006525;28;20211;-77
2020/12/14 04:07:34;;;;;;;11.43;8.30;;;7.90;99.90;;;;;;5007204;28;20284;-76
2020/12/14 04:10:00;;;;;;;10.77;8.10;;;7.90;99.90;;;;;;5006587;28;20214;-78
2020/12/14 04:12:26;;;;;;;10.83;8.33;;;7.90;99.90;;;;;;5006769;28;20689;-77
2020/12/14 04:14:52;;;;;;;10.57;8.63;;;7.90;99.90;;;;;;5006101;28;20222;-77
2020/12/14 04:17:19;;;;;;;10.60;8.83;;;8.00;99.90;;;;;;5006497;28;20195;-77
2020/12/14 04:19:45;;;;;;;9.63;8.27;;;8.00;99.90;;;;;;5006836;28;20225;-78
2020/12/14 04:22:11;;;;;;;11.80;9.13;;;8.00;99.90;;;;;;4987220;28;20258;-78
2020/12/14 04:24:38;;;;;;;10.43;8.37;;;8.00;99.90;;;;;;4986354;28;20239;-76
2020/12/14 04:27:05;;;;;;;11.17;8.33;;;8.00;99.90;;;;;;4986019;28;20228;-78
2020/12/14 04:29:31;;;;;;;8.20;7.40;;;8.00;99.90;;;;;;4986703;28;20257;-76
2020/12/14 04:31:58;;;;;;;8.13;7.33;;;8.00;99.90;;;;;;4986925;28;20211;-76
2020/12/14 04:34:24;;;;;;;7.77;6.97;;;8.00;99.90;;;;;;4986398;28;20315;-77
2020/12/14 04:36:51;;;;;;;7.30;6.53;;;8.00;99.90;;;;;;4986081;28;20204;-75
2020/12/14 04:39:17;;;;;;;7.87;7.07;;;8.00;99.90;;;;;;4985743;28;20219;-76
2020/12/14 04:41:45;;;;;;;8.40;7.13;;;8.00;99.90;;;;;;4985721;28;20539;-76
2020/12/14 04:44:12;;;;;;;7.77;6.63;;;8.00;99.90;;;;;;4985383;28;20200;-76
2020/12/14 04:46:38;;;;;;;8.53;7.47;;;8.10;99.90;;;;;;4986470;28;20206;-77
2020/12/14 04:49:07;;;;;;;12.03;7.90;;;8.10;99.90;;;;;;4986703;28;20243;-77
2020/12/14 04:51:36;;;;;;;15.57;10.77;;;8.10;99.90;;;;;;4986350;28;20208;-76
2020/12/14 04:54:04;;;;;;;15.97;11.27;;;8.10;99.90;;;;;;4985766;28;20211;-76
2020/12/14 04:56:30;;;;;;;19.00;13.07;;;8.10;99.90;;;;;;4985418;28;20223;-77
2020/12/14 04:58:58;;;;;;;17.30;13.93;;;8.10;99.90;;;;;;4985727;28;20207;-77
2020/12/14 05:01:25;;;;;;;19.63;14.97;;;8.10;99.90;;;;;;4987338;28;20798;-77
2020/12/14 05:03:51;;;;;;;18.53;14.40;;;8.10;99.90;;;;;;4986818;28;20628;-77
2020/12/14 05:06:17;;;;;;;18.83;15.33;;;8.20;99.90;;;;;;4986266;28;20192;-78
2020/12/14 05:08:44;;;;;;;18.73;15.27;;;8.20;99.90;;;;;;4987212;28;20207;-78
2020/12/14 05:11:10;;;;;;;22.77;16.23;;;8.20;99.90;;;;;;4985992;28;20228;-79
2020/12/14 05:13:37;;;;;;;20.80;16.00;;;8.20;99.90;;;;;;4987132;28;20228;-78
2020/12/14 05:16:04;;;;;;;22.27;16.67;;;8.20;99.90;;;;;;4985381;28;20215;-77
2020/12/14 05:18:30;;;;;;;23.40;16.60;;;8.30;99.90;;;;;;4986766;28;20266;-78
2020/12/14 05:20:58;;;;;;;19.40;15.87;;;8.20;99.90;;;;;;4994925;28;20211;-79
2020/12/14 05:23:26;;;;;;;19.67;15.43;;;8.30;99.90;;;;;;5006424;28;20231;-79
2020/12/14 05:26:04;;;;;;;22.00;16.90;;;8.30;99.90;;;;;;5005485;28;20515;-77
2020/12/14 05:28:31;;;;;;;21.43;16.47;;;8.30;99.90;;;;;;5006148;28;20305;-78
2020/12/14 05:30:57;;;;;;;22.27;15.63;;;8.30;99.90;;;;;;5005751;28;20227;-77
2020/12/14 05:33:25;;;;;;;20.07;16.53;;;8.30;99.90;;;;;;5005359;28;20207;-77
2020/12/14 05:35:52;;;;;;;20.13;15.73;;;8.30;99.90;;;;;;5005984;28;20516;-77
2020/12/14 05:38:20;;;;;;;20.50;16.27;;;8.30;99.90;;;;;;5005359;28;20531;-76
2020/12/14 05:40:49;;;;;;;19.83;15.57;;;8.40;99.90;;;;;;5004742;28;20612;-78
2020/12/14 05:43:16;;;;;;;20.03;15.40;;;8.40;99.90;;;;;;5004918;28;20207;-77
2020/12/14 05:45:44;;;;;;;18.63;15.57;;;8.40;99.90;;;;;;5005166;28;20195;-78
2020/12/14 05:48:29;;;;;;;21.67;17.43;;;8.50;99.90;;;;;;5005000;28;20207;-78
2020/12/14 05:50:58;;;;;;;22.07;18.27;;;8.50;99.90;;;;;;5005653;28;20223;-79
2020/12/14 05:53:33;;;;;;;22.10;17.27;;;8.50;99.90;;;;;;5004912;28;20481;-76
2020/12/14 05:56:00;;;;;;;24.57;17.73;;;8.60;99.90;;;;;;5005067;28;20202;-79
2020/12/14 05:58:29;;;;;;;21.50;17.20;;;8.60;99.90;;;;;;5005390;28;20207;-77
2020/12/14 06:00:56;;;;;;;25.20;19.47;;;8.60;99.90;;;;;;5005015;28;20581;-79
2020/12/14 06:03:24;;;;;;;21.83;17.23;;;8.60;99.90;;;;;;5004943;28;20282;-80
2020/12/14 06:05:57;;;;;;;22.67;18.10;;;8.70;99.90;;;;;;5004986;28;20200;-78
2020/12/14 06:09:05;;;;;;;25.87;18.47;;;8.70;99.90;;;;;;5004200;28;20211;-77
2020/12/14 06:11:36;;;;;;;27.97;18.93;;;8.80;99.90;;;;;;5004235;28;20199;-78
2020/12/14 06:14:03;;;;;;;26.80;20.20;;;8.80;99.90;;;;;;5003826;28;20234;-78
2020/12/14 06:16:32;;;;;;;26.30;20.80;;;8.80;99.90;;;;;;5004601;28;20674;-78
2020/12/14 06:18:59;;;;;;;27.43;20.13;;;8.80;99.90;;;;;;5004513;28;20766;-78
2020/12/14 06:21:30;;;;;;;29.53;20.63;;;8.80;99.90;;;;;;4991785;28;20678;-78
2020/12/14 06:23:59;;;;;;;29.60;21.37;;;8.80;99.90;;;;;;4984765;28;20559;-77
2020/12/14 06:26:28;;;;;;;29.13;22.27;;;8.80;99.90;;;;;;4985220;28;20262;-78
2020/12/14 06:28:55;;;;;;;28.10;21.73;;;8.80;99.90;;;;;;4984855;28;20331;-78
2020/12/14 06:31:35;;;;;;;30.73;23.10;;;8.90;99.90;;;;;;4967766;28;20291;-76
2020/12/14 06:34:03;;;;;;;31.40;22.90;;;8.90;99.90;;;;;;4984978;28;20214;-79
2020/12/14 06:36:39;;;;;;;28.87;22.83;;;8.90;99.90;;;;;;4983839;28;20286;-78
2020/12/14 06:39:26;;;;;;;29.13;22.27;;;8.90;99.90;;;;;;4983387;28;20204;-78
2020/12/14 06:41:53;;;;;;;34.73;25.10;;;9.00;99.90;;;;;;4983533;28;20203;-78
2020/12/14 06:44:20;;;;;;;31.03;23.50;;;9.00;99.90;;;;;;4983404;28;20255;-78
2020/12/14 06:46:47;;;;;;;33.43;23.93;;;9.10;99.90;;;;;;4984115;28;20223;-76
2020/12/14 06:49:28;;;;;;;31.93;24.77;;;9.10;99.90;;;;;;4984034;28;20319;-77
2020/12/14 06:51:55;;;;;;;31.00;23.60;;;9.10;99.90;;;;;;4984854;28;20203;-77
2020/12/14 06:54:40;;;;;;;32.00;25.10;;;9.10;99.90;;;;;;4984631;28;20207;-81
2020/12/14 06:57:07;;;;;;;33.43;25.20;;;9.10;99.90;;;;;;4983318;28;20291;-78
2020/12/14 06:59:34;;;;;;;31.37;24.53;;;9.10;99.90;;;;;;4984579;28;20607;-76
2020/12/14 07:02:02;;;;;;;30.87;24.03;;;9.20;99.90;;;;;;4983863;28;20208;-77
2020/12/14 07:04:40;;;;;;;33.03;24.60;;;9.20;99.90;;;;;;4984006;28;20231;-77
2020/12/14 07:07:29;;;;;;;31.43;23.47;;;9.20;99.90;;;;;;4984075;28;20208;-77
2020/12/14 07:10:09;;;;;;;30.43;21.90;;;9.20;99.90;;;;;;4983809;28;20232;-79
2020/12/14 07:12:44;;;;;;;27.23;21.20;;;9.20;99.90;;;;;;4984174;28;20577;-77
2020/12/14 07:15:29;;;;;;;23.50;19.73;;;9.20;99.90;;;;;;4984547;28;20470;-77
2020/12/14 07:18:09;;;;;;;25.00;20.27;;;9.20;99.90;;;;;;4983110;28;20243;-76
2020/12/14 07:20:46;;;;;;;24.47;19.57;;;9.30;99.90;;;;;;4972357;28;20212;-77
2020/12/14 07:23:14;;;;;;;26.37;19.80;;;9.30;99.90;;;;;;5003471;28;20416;-77
2020/12/14 07:25:47;;;;;;;27.60;22.90;;;9.30;99.90;;;;;;5002698;28;20583;-78
2020/12/14 07:28:13;;;;;;;26.67;21.97;;;9.30;99.90;;;;;;5002993;28;21072;-78
2020/12/14 07:30:39;;;;;;;28.63;23.23;;;9.40;99.90;;;;;;5003356;28;20242;-77
2020/12/14 07:33:05;;;;;;;30.13;23.47;;;9.40;99.90;;;;;;5002632;28;20205;-76
2020/12/14 07:35:32;;;;;;;31.03;24.87;;;9.40;99.90;;;;;;5003597;28;20670;-79
2020/12/14 07:37:59;;;;;;;31.27;23.50;;;9.40;99.90;;;;;;5002963;28;20629;-78
2020/12/14 07:40:25;;;;;;;28.73;24.03;;;9.40;99.90;;;;;;5002809;28;20202;-77
2020/12/14 07:42:51;;;;;;;29.87;24.10;;;9.50;99.90;;;;;;5003502;28;20215;-77
2020/12/14 07:45:19;;;;;;;32.47;24.10;;;9.50;99.90;;;;;;5002636;28;20203;-77
2020/12/14 07:47:47;;;;;;;30.80;25.33;;;9.50;99.90;;;;;;5003375;28;20199;-75
2020/12/14 07:50:16;;;;;;;35.73;26.23;;;9.50;99.90;;;;;;5003242;28;20914;-77
2020/12/14 07:52:43;;;;;;;28.57;24.17;;;9.50;99.90;;;;;;5003313;28;20203;-79
2020/12/14 07:55:11;;;;;;;29.83;24.30;;;9.50;99.90;;;;;;5002996;28;20299;-79
2020/12/14 07:57:39;;;;;;;30.50;25.00;;;9.60;99.90;;;;;;5003847;28;20203;-79
2020/12/14 08:00:11;;;;;;;30.23;23.70;;;9.60;99.90;;;;;;5002625;28;20223;-79
2020/12/14 08:02:38;;;;;;;31.50;24.03;;;9.60;99.90;;;;;;5003547;28;20207;-77
2020/12/14 08:05:06;;;;;;;30.60;25.40;;;9.60;99.90;;;;;;5002971;28;20214;-78
2020/12/14 08:07:40;;;;;;;30.13;23.87;;;9.60;99.90;;;;;;5002978;28;20210;-79
2020/12/14 08:10:08;;;;;;;28.93;22.80;;;9.60;99.90;;;;;;5002964;28;20328;-77
2020/12/14 08:12:37;;;;;;;30.43;24.60;;;9.60;99.90;;;;;;5002972;28;20219;-76
2020/12/14 08:15:06;;;;;;;31.20;23.33;;;9.60;99.90;;;;;;5002570;28;20595;-78
2020/12/14 08:17:35;;;;;;;28.93;22.60;;;9.60;99.90;;;;;;5003590;28;20289;-78
2020/12/14 08:20:02;;;;;;;28.20;23.17;;;9.70;99.90;;;;;;5001970;28;20203;-76
2020/12/14 08:22:32;;;;;;;26.53;22.50;;;9.70;99.90;;;;;;4982778;28;20215;-77
2020/12/14 08:24:58;;;;;;;34.13;21.87;;;9.70;99.90;;;;;;4983326;28;20287;-76
2020/12/14 08:27:46;;;;;;;29.37;22.00;;;9.80;99.90;;;;;;4982947;28;20204;-76
2020/12/14 08:30:15;;;;;;;25.17;20.80;;;9.80;99.90;;;;;;4983033;28;20224;-77
2020/12/14 08:32:41;;;;;;;22.27;19.60;;;9.80;99.90;;;;;;4983141;28;20204;-76
2020/12/14 08:35:25;;;;;;;21.60;19.10;;;9.70;99.90;;;;;;4982158;28;20200;-77
2020/12/14 08:58:28;;;;;;;18.00;15.30;;;10.10;99.90;;;;;;4869476;29;20232;-77
2020/12/14 09:00:54;;;;;;;18.33;15.00;;;10.20;99.90;;;;;;4925745;29;20202;-76
2020/12/14 09:03:20;;;;;;;16.00;14.40;;;10.30;99.90;;;;;;4925501;29;20206;-76
2020/12/14 09:05:47;;;;;;;15.47;13.77;;;10.30;99.90;;;;;;4936883;29;20349;-78
2020/12/14 09:08:14;;;;;;;16.77;14.57;;;10.40;99.90;;;;;;4944213;29;20205;-78
2020/12/14 09:10:41;;;;;;;15.07;12.97;;;10.40;99.90;;;;;;4944022;29;20229;-77
2020/12/14 09:13:07;;;;;;;15.83;12.93;;;10.40;99.90;;;;;;4944964;28;20225;-77
2020/12/14 09:15:35;;;;;;;12.97;11.67;;;10.50;99.90;;;;;;4944733;29;20212;-77
2020/12/14 09:18:04;;;;;;;14.27;11.67;;;10.50;99.90;;;;;;4942169;29;20237;-76
2020/12/14 09:20:30;;;;;;;14.33;11.50;;;10.50;99.90;;;;;;4940213;29;21064;-76
2020/12/14 09:22:56;;;;;;;12.13;10.90;;;10.50;99.90;;;;;;4925527;29;20641;-77
2020/12/14 09:25:23;;;;;;;12.97;10.27;;;10.60;99.90;;;;;;4924664;29;20209;-77
2020/12/14 09:27:49;;;;;;;15.23;9.80;;;10.60;99.90;;;;;;4925327;29;20194;-77
2020/12/14 09:30:15;;;;;;;11.93;9.53;;;10.60;99.90;;;;;;4924905;29;20233;-75
2020/12/14 09:32:42;;;;;;;13.20;9.70;;;10.70;99.90;;;;;;4924804;29;20319;-77
2020/12/14 09:35:08;;;;;;;10.90;9.80;;;10.70;99.90;;;;;;4925078;29;20578;-77
2020/12/14 09:37:34;;;;;;;9.83;8.83;;;10.70;99.90;;;;;;4924436;29;20583;-75
2020/12/14 09:40:01;;;;;;;12.90;8.70;;;10.70;99.90;;;;;;4923110;29;20206;-75
2020/12/14 09:42:28;;;;;;;16.60;10.77;;;10.70;99.90;;;;;;4925741;29;20209;-76
2020/12/14 09:44:54;;;;;;;10.33;8.93;;;10.80;99.90;;;;;;4925463;29;20216;-78
2020/12/14 09:47:21;;;;;;;12.33;8.63;;;10.80;99.90;;;;;;4928007;28;20206;-77
2020/12/14 09:49:48;;;;;;;8.70;7.80;;;10.70;99.90;;;;;;4966253;28;20235;-77
2020/12/14 09:52:14;;;;;;;9.00;7.83;;;10.80;99.90;;;;;;4965076;28;20197;-77
2020/12/14 09:54:40;;;;;;;8.63;7.07;;;10.80;99.90;;;;;;4964985;28;20239;-78
2020/12/14 09:57:06;;;;;;;9.30;7.47;;;10.80;99.90;;;;;;4964726;28;20201;-78
2020/12/14 09:59:32;;;;;;;8.10;7.13;;;10.80;99.90;;;;;;4964105;28;20208;-79
2020/12/14 10:01:59;;;;;;;7.53;6.57;;;10.80;99.90;;;;;;4963792;28;20197;-77
2020/12/14 10:04:25;;;;;;;8.93;6.20;;;10.90;99.90;;;;;;4964778;28;20911;-75
2020/12/14 10:06:52;;;;;;;6.17;5.60;;;10.90;99.90;;;;;;4964423;28;20209;-77
2020/12/14 10:09:18;;;;;;;8.27;5.43;;;11.00;99.90;;;;;;4965721;28;20205;-77
2020/12/14 10:11:44;;;;;;;7.77;5.90;;;11.10;99.90;;;;;;4963238;28;20215;-76
2020/12/14 10:14:11;;;;;;;6.57;5.43;;;11.10;99.90;;;;;;4989049;28;20239;-75
2020/12/14 10:16:37;;;;;;;7.87;5.07;;;11.10;99.90;;;;;;4990259;28;20215;-75
2020/12/14 10:19:06;;;;;;;5.27;4.70;;;11.20;99.90;;;;;;4990052;28;20263;-77
2020/12/14 10:21:32;;;;;;;6.50;5.17;;;11.20;99.90;;;;;;4980105;28;20293;-77
2020/12/14 10:24:00;;;;;;;5.83;5.07;;;11.30;99.90;;;;;;4982741;28;20203;-77
2020/12/14 10:26:26;;;;;;;5.70;4.50;;;11.30;99.90;;;;;;4982112;28;20192;-77
2020/12/14 10:28:54;;;;;;;5.87;4.70;;;11.40;99.90;;;;;;4982444;28;20215;-77
2020/12/14 10:31:20;;;;;;;8.17;4.47;;;11.40;99.90;;;;;;4982684;28;20243;-77
2020/12/14 10:33:47;;;;;;;6.50;4.73;;;11.50;99.90;;;;;;4980040;28;20208;-77
2020/12/14 10:36:18;;;;;;;6.43;4.30;;;11.50;99.90;;;;;;4981877;28;20231;-76
2020/12/14 10:38:45;;;;;;;5.43;4.37;;;11.60;99.90;;;;;;4982533;28;20216;-77
2020/12/14 10:41:12;;;;;;;6.73;4.33;;;11.70;99.90;;;;;;4981528;28;20479;-77
2020/12/14 10:43:40;;;;;;;4.13;3.73;;;11.70;99.90;;;;;;4980756;28;20224;-76
2020/12/14 10:46:06;;;;;;;5.07;3.80;;;11.70;99.90;;;;;;4982009;28;20382;-76
2020/12/14 10:48:32;;;;;;;6.07;3.47;;;11.70;99.90;;;;;;4982697;28;20212;-76
2020/12/14 10:50:59;;;;;;;6.10;3.67;;;11.80;99.90;;;;;;4981463;28;20228;-76
2020/12/14 10:53:25;;;;;;;7.87;4.60;;;11.80;99.90;;;;;;4981833;28;20660;-75
2020/12/14 10:55:51;;;;;;;10.43;3.57;;;11.80;99.90;;;;;;4978083;28;20218;-77
2020/12/14 10:58:18;;;;;;;5.53;3.50;;;11.80;99.90;;;;;;4982658;28;20303;-76
2020/12/14 11:00:44;;;;;;;5.80;2.80;;;11.80;99.90;;;;;;4979217;28;20215;-75
2020/12/14 11:03:10;;;;;;;5.73;2.70;;;11.80;99.90;;;;;;4982002;28;20212;-76
2020/12/14 11:05:37;;;;;;;5.10;2.77;;;11.80;99.90;;;;;;4982350;28;20373;-75
2020/12/14 11:08:03;;;;;;;7.93;2.57;;;11.70;99.90;;;;;;4982569;28;20514;-77
2020/12/14 11:10:29;;;;;;;6.03;2.83;;;11.80;99.90;;;;;;4981923;28;20223;-78
2020/12/14 11:12:56;;;;;;;4.40;2.50;;;11.90;99.90;;;;;;4980916;28;20224;-78
2020/12/14 11:15:23;;;;;;;7.27;2.70;;;11.90;99.90;;;;;;4981683;28;20208;-79
2020/12/14 11:17:49;;;;;;;6.70;2.67;;;12.00;99.90;;;;;;4978329;28;20682;-76
2020/12/14 11:20:15;;;;;;;6.77;2.53;;;12.00;99.90;;;;;;4973765;28;20587;-78
2020/12/14 11:22:43;;;;;;;7.50;2.53;;;11.90;99.90;;;;;;4973352;28;20208;-78
2020/12/14 11:25:10;;;;;;;4.80;1.97;;;11.90;99.90;;;;;;4974782;28;20231;-77
2020/12/14 11:27:37;;;;;;;4.70;2.17;;;12.00;99.90;;;;;;4969802;28;20223;-76
2020/12/14 11:30:04;;;;;;;6.03;2.53;;;12.00;99.90;;;;;;4962138;28;20228;-75
2020/12/14 11:32:31;;;;;;;4.37;2.13;;;12.00;99.90;;;;;;4975617;28;20208;-77
2020/12/14 11:34:57;;;;;;;2.97;2.00;;;12.10;99.90;;;;;;4974744;28;20625;-76
2020/12/14 11:37:24;;;;;;;8.87;2.23;;;12.20;99.90;;;;;;4980956;28;20221;-78
2020/12/14 11:39:50;;;;;;;3.17;1.97;;;12.20;99.90;;;;;;4967225;28;20296;-75
2020/12/14 11:42:16;;;;;;;8.60;2.30;;;12.20;99.90;;;;;;4978157;28;20203;-78
2020/12/14 11:44:43;;;;;;;4.27;2.77;;;12.30;99.90;;;;;;4977778;28;20216;-80
2020/12/14 11:47:09;;;;;;;4.97;2.17;;;12.30;99.90;;;;;;4962672;28;20204;-75
2020/12/14 11:49:36;;;;;;;5.47;2.50;;;12.40;99.90;;;;;;4962454;28;20212;-79
2020/12/14 11:52:03;;;;;;;4.43;2.33;;;12.40;99.90;;;;;;4962474;28;20212;-78
2020/12/14 11:54:30;;;;;;;5.13;1.93;;;12.40;99.90;;;;;;4981398;28;20607;-80
2020/12/14 11:56:56;;;;;;;6.10;2.40;;;12.50;99.90;;;;;;4970371;28;20213;-75
2020/12/14 11:59:23;;;;;;;4.47;2.03;;;12.50;99.90;;;;;;4962506;28;20205;-76
2020/12/14 12:01:50;;;;;;;7.60;1.97;;;12.50;99.90;;;;;;4962131;28;20213;-77
2020/12/14 12:04:17;;;;;;;7.80;2.43;;;12.50;99.90;;;;;;4962791;28;20595;-78
2020/12/14 12:06:45;;;;;;;7.50;2.40;;;12.50;99.90;;;;;;4980936;28;20528;-79
2020/12/14 12:09:11;;;;;;;6.63;1.97;;;12.50;99.90;;;;;;4963974;28;20217;-78
2020/12/14 12:11:37;;;;;;;4.10;1.70;;;12.50;99.90;;;;;;4961950;28;20224;-78
2020/12/14 12:14:03;;;;;;;4.07;1.77;;;12.50;99.90;;;;;;4977818;28;20231;-79
2020/12/14 12:16:30;;;;;;;5.13;1.87;;;12.50;99.90;;;;;;4966370;28;20239;-79
2020/12/14 12:18:56;;;;;;;6.27;2.20;;;12.60;99.90;;;;;;4973689;28;20314;-78
2020/12/14 12:21:22;;;;;;;3.87;1.80;;;12.60;99.90;;;;;;4968859;28;20623;-80
2020/12/14 12:23:49;;;;;;;5.57;2.07;;;12.50;99.90;;;;;;4965690;28;20379;-80
2020/12/14 12:26:16;;;;;;;2.53;1.50;;;12.60;99.90;;;;;;4979344;28;20231;-79
2020/12/14 12:28:42;;;;;;;3.97;2.00;;;12.50;99.90;;;;;;4973886;28;20223;-79
2020/12/14 12:31:09;;;;;;;4.60;2.23;;;12.50;99.90;;;;;;4981080;28;20647;-75
2020/12/14 12:33:35;;;;;;;7.13;2.30;;;12.50;99.90;;;;;;4973143;28;20204;-78
2020/12/14 12:36:03;;;;;;;3.23;1.90;;;12.50;99.90;;;;;;4969560;28;20518;-78
2020/12/14 12:38:29;;;;;;;4.03;1.90;;;12.40;99.90;;;;;;4975738;28;20933;-76
2020/12/14 12:40:56;;;;;;;3.70;2.13;;;12.40;99.90;;;;;;4968854;28;20215;-78
2020/12/14 12:43:22;;;;;;;4.77;2.03;;;12.40;99.90;;;;;;4966392;28;20212;-78
2020/12/14 12:45:50;;;;;;;6.57;2.30;;;12.40;99.90;;;;;;4985032;28;20200;-77
2020/12/14 12:48:16;;;;;;;5.00;2.30;;;12.50;99.90;;;;;;4984067;28;20208;-76
2020/12/14 12:50:52;;;;;;;7.30;2.80;;;12.50;99.90;;;;;;4980842;28;20224;-78
2020/12/14 12:53:24;;;;;;;5.30;3.03;;;12.50;99.90;;;;;;4966383;28;20761;-78
2020/12/14 12:55:51;;;;;;;5.60;2.80;;;12.40;99.90;;;;;;4964330;28;20205;-78
2020/12/14 12:58:19;;;;;;;5.77;2.70;;;12.40;99.90;;;;;;4969799;28;20220;-77
2020/12/14 13:00:45;;;;;;;8.00;2.93;;;12.40;99.90;;;;;;4984723;28;20219;-78
2020/12/14 13:03:11;;;;;;;5.37;2.90;;;12.30;99.90;;;;;;4984629;28;20185;-76
2020/12/14 13:05:39;;;;;;;6.53;3.20;;;12.30;99.90;;;;;;4985678;28;20213;-79
2020/12/14 13:08:05;;;;;;;6.70;2.93;;;12.40;99.90;;;;;;4985870;28;20291;-79